sensor_id;sensor_type;location;lat;lon;timestamp;P1;durP1;ratioP1;P2;durP2;ratioP2
72924;SDS011;61070;50.794;7.054;2023-04-07T00:00:03;20.90;;;12.45;;
72924;SDS011;61070;50.794;7.054;2023-04-07T00:02:30;21.50;;;11.95;;
72924;SDS011;61070;50.794;7.054;2023-04-07T00:04:56;19.50;;;12.55;;
72924;SDS011;61070;50.794;7.054;2023-04-07T00:07:22;21.70;;;12.18;;
72924;SDS011;61070;50.794;7.054;2023-04-07T00:09:47;17.70;;;11.75;;
72924;SDS011;61070;50.794;7.054;2023-04-07T00:12:13;18.02;;;11.85;;
72924;SDS011;61070;50.794;7.054;2023-04-07T00:14:38;20.17;;;12.80;;
72924;SDS011;61070;50.794;7.054;2023-04-07T00:17:03;21.63;;;12.52;;
72924;SDS011;61070;50.794;7.054;2023-04-07T00:19:29;20.52;;;12.25;;
72924;SDS011;61070;50.794;7.054;2023-04-07T00:21:54;26.50;;;13.88;;
72924;SDS011;61070;50.794;7.054;2023-04-07T00:24:20;22.08;;;13.15;;
72924;SDS011;61070;50.794;7.054;2023-04-07T00:26:46;21.63;;;13.52;;
72924;SDS011;61070;50.794;7.054;2023-04-07T00:29:11;26.40;;;14.57;;
72924;SDS011;61070;50.794;7.054;2023-04-07T00:31:36;21.90;;;13.85;;
72924;SDS011;61070;50.794;7.054;2023-04-07T00:34:01;25.45;;;14.77;;
72924;SDS011;61070;50.794;7.054;2023-04-07T00:36:27;22.55;;;13.45;;
72924;SDS011;61070;50.794;7.054;2023-04-07T00:38:52;24.63;;;14.27;;
72924;SDS011;61070;50.794;7.054;2023-04-07T00:41:18;22.65;;;12.57;;
72924;SDS011;61070;50.794;7.054;2023-04-07T00:43:43;21.85;;;13.25;;
72924;SDS011;61070;50.794;7.054;2023-04-07T00:46:09;21.70;;;12.57;;
72924;SDS011;61070;50.794;7.054;2023-04-07T00:48:35;21.70;;;12.82;;
72924;SDS011;61070;50.794;7.054;2023-04-07T00:51:01;18.88;;;12.48;;
72924;SDS011;61070;50.794;7.054;2023-04-07T00:53:27;23.17;;;12.48;;
72924;SDS011;61070;50.794;7.054;2023-04-07T00:55:53;26.38;;;13.23;;
72924;SDS011;61070;50.794;7.054;2023-04-07T00:58:18;20.95;;;11.98;;
72924;SDS011;61070;50.794;7.054;2023-04-07T01:01:03;20.40;;;11.50;;
72924;SDS011;61070;50.794;7.054;2023-04-07T01:03:34;23.00;;;11.43;;
72924;SDS011;61070;50.794;7.054;2023-04-07T01:06:04;16.30;;;11.65;;
72924;SDS011;61070;50.794;7.054;2023-04-07T01:11:27;21.00;;;11.50;;
72924;SDS011;61070;50.794;7.054;2023-04-07T01:13:56;20.88;;;12.00;;
72924;SDS011;61070;50.794;7.054;2023-04-07T01:16:34;26.83;;;12.55;;
72924;SDS011;61070;50.794;7.054;2023-04-07T01:19:07;19.52;;;11.13;;
72924;SDS011;61070;50.794;7.054;2023-04-07T01:21:45;19.88;;;11.07;;
72924;SDS011;61070;50.794;7.054;2023-04-07T01:24:26;20.17;;;11.73;;
72924;SDS011;61070;50.794;7.054;2023-04-07T01:30:18;17.52;;;11.00;;
72924;SDS011;61070;50.794;7.054;2023-04-07T01:32:45;18.90;;;11.55;;
72924;SDS011;61070;50.794;7.054;2023-04-07T01:35:14;18.63;;;10.73;;
72924;SDS011;61070;50.794;7.054;2023-04-07T01:37:41;21.77;;;11.20;;
72924;SDS011;61070;50.794;7.054;2023-04-07T01:40:10;18.17;;;11.25;;
72924;SDS011;61070;50.794;7.054;2023-04-07T01:42:36;17.65;;;10.63;;
72924;SDS011;61070;50.794;7.054;2023-04-07T01:45:03;16.70;;;11.23;;
72924;SDS011;61070;50.794;7.054;2023-04-07T01:47:31;18.20;;;9.98;;
72924;SDS011;61070;50.794;7.054;2023-04-07T01:50:01;20.83;;;11.13;;
72924;SDS011;61070;50.794;7.054;2023-04-07T01:52:33;16.45;;;10.68;;
72924;SDS011;61070;50.794;7.054;2023-04-07T01:55:00;16.55;;;9.90;;
72924;SDS011;61070;50.794;7.054;2023-04-07T01:57:25;21.48;;;10.32;;
72924;SDS011;61070;50.794;7.054;2023-04-07T01:59:51;17.75;;;10.43;;
72924;SDS011;61070;50.794;7.054;2023-04-07T02:02:17;16.35;;;10.00;;
72924;SDS011;61070;50.794;7.054;2023-04-07T02:07:40;18.23;;;11.45;;
72924;SDS011;61070;50.794;7.054;2023-04-07T02:10:11;19.60;;;10.77;;
72924;SDS011;61070;50.794;7.054;2023-04-07T02:12:39;24.55;;;12.43;;
72924;SDS011;61070;50.794;7.054;2023-04-07T02:15:07;18.65;;;11.38;;
72924;SDS011;61070;50.794;7.054;2023-04-07T02:17:35;21.63;;;14.00;;
72924;SDS011;61070;50.794;7.054;2023-04-07T02:20:04;25.10;;;15.25;;
72924;SDS011;61070;50.794;7.054;2023-04-07T02:22:32;25.98;;;14.93;;
72924;SDS011;61070;50.794;7.054;2023-04-07T02:24:57;27.92;;;16.45;;
72924;SDS011;61070;50.794;7.054;2023-04-07T02:27:22;26.58;;;17.02;;
72924;SDS011;61070;50.794;7.054;2023-04-07T02:29:48;33.42;;;19.15;;
72924;SDS011;61070;50.794;7.054;2023-04-07T02:32:13;37.67;;;20.63;;
72924;SDS011;61070;50.794;7.054;2023-04-07T02:34:41;35.75;;;19.77;;
72924;SDS011;61070;50.794;7.054;2023-04-07T02:37:07;40.70;;;22.25;;
72924;SDS011;61070;50.794;7.054;2023-04-07T02:39:32;39.47;;;20.55;;
72924;SDS011;61070;50.794;7.054;2023-04-07T02:41:57;40.80;;;21.52;;
72924;SDS011;61070;50.794;7.054;2023-04-07T02:44:23;42.97;;;23.23;;
72924;SDS011;61070;50.794;7.054;2023-04-07T02:46:48;42.75;;;22.95;;
72924;SDS011;61070;50.794;7.054;2023-04-07T02:49:13;44.03;;;22.88;;
72924;SDS011;61070;50.794;7.054;2023-04-07T02:51:38;45.42;;;23.92;;
72924;SDS011;61070;50.794;7.054;2023-04-07T02:54:04;45.42;;;23.80;;
72924;SDS011;61070;50.794;7.054;2023-04-07T02:56:29;48.95;;;23.25;;
72924;SDS011;61070;50.794;7.054;2023-04-07T02:58:55;48.33;;;21.80;;
72924;SDS011;61070;50.794;7.054;2023-04-07T03:01:20;47.75;;;24.17;;
72924;SDS011;61070;50.794;7.054;2023-04-07T03:03:45;44.08;;;21.83;;
72924;SDS011;61070;50.794;7.054;2023-04-07T03:06:11;41.55;;;22.05;;
72924;SDS011;61070;50.794;7.054;2023-04-07T03:08:37;46.38;;;25.00;;
72924;SDS011;61070;50.794;7.054;2023-04-07T03:11:02;46.60;;;23.95;;
72924;SDS011;61070;50.794;7.054;2023-04-07T03:13:28;49.40;;;24.05;;
72924;SDS011;61070;50.794;7.054;2023-04-07T03:15:54;50.28;;;24.38;;
72924;SDS011;61070;50.794;7.054;2023-04-07T03:18:20;55.83;;;25.23;;
72924;SDS011;61070;50.794;7.054;2023-04-07T03:20:47;50.13;;;25.35;;
72924;SDS011;61070;50.794;7.054;2023-04-07T03:23:12;50.35;;;24.25;;
72924;SDS011;61070;50.794;7.054;2023-04-07T03:25:38;53.22;;;23.75;;
72924;SDS011;61070;50.794;7.054;2023-04-07T03:28:03;48.70;;;23.30;;
72924;SDS011;61070;50.794;7.054;2023-04-07T03:30:28;51.33;;;25.45;;
72924;SDS011;61070;50.794;7.054;2023-04-07T03:32:54;50.55;;;25.00;;
72924;SDS011;61070;50.794;7.054;2023-04-07T03:35:19;52.22;;;25.90;;
72924;SDS011;61070;50.794;7.054;2023-04-07T03:37:44;51.70;;;25.95;;
72924;SDS011;61070;50.794;7.054;2023-04-07T03:40:10;63.33;;;27.23;;
72924;SDS011;61070;50.794;7.054;2023-04-07T03:42:35;58.63;;;28.08;;
72924;SDS011;61070;50.794;7.054;2023-04-07T03:45:01;64.22;;;27.02;;
72924;SDS011;61070;50.794;7.054;2023-04-07T03:47:26;60.67;;;28.48;;
72924;SDS011;61070;50.794;7.054;2023-04-07T03:49:51;58.85;;;28.13;;
72924;SDS011;61070;50.794;7.054;2023-04-07T03:52:17;58.78;;;26.55;;
72924;SDS011;61070;50.794;7.054;2023-04-07T03:54:42;59.30;;;27.40;;
72924;SDS011;61070;50.794;7.054;2023-04-07T03:57:07;58.13;;;28.08;;
72924;SDS011;61070;50.794;7.054;2023-04-07T03:59:33;58.40;;;26.10;;
72924;SDS011;61070;50.794;7.054;2023-04-07T04:01:58;58.63;;;28.83;;
72924;SDS011;61070;50.794;7.054;2023-04-07T04:04:23;58.38;;;26.38;;
72924;SDS011;61070;50.794;7.054;2023-04-07T04:06:49;63.40;;;28.25;;
72924;SDS011;61070;50.794;7.054;2023-04-07T04:09:15;60.70;;;28.13;;
72924;SDS011;61070;50.794;7.054;2023-04-07T04:11:40;60.33;;;28.63;;
72924;SDS011;61070;50.794;7.054;2023-04-07T04:14:06;55.03;;;28.77;;
72924;SDS011;61070;50.794;7.054;2023-04-07T04:16:31;53.15;;;26.80;;
72924;SDS011;61070;50.794;7.054;2023-04-07T04:18:56;56.45;;;27.33;;
72924;SDS011;61070;50.794;7.054;2023-04-07T04:21:22;57.92;;;28.50;;
72924;SDS011;61070;50.794;7.054;2023-04-07T04:23:47;59.47;;;28.70;;
72924;SDS011;61070;50.794;7.054;2023-04-07T04:26:12;66.75;;;29.75;;
72924;SDS011;61070;50.794;7.054;2023-04-07T04:28:37;66.25;;;30.98;;
72924;SDS011;61070;50.794;7.054;2023-04-07T04:31:03;62.67;;;28.30;;
72924;SDS011;61070;50.794;7.054;2023-04-07T04:33:28;58.55;;;28.88;;
72924;SDS011;61070;50.794;7.054;2023-04-07T04:35:54;66.70;;;30.67;;
72924;SDS011;61070;50.794;7.054;2023-04-07T04:38:19;65.57;;;30.05;;
72924;SDS011;61070;50.794;7.054;2023-04-07T04:40:44;66.60;;;29.85;;
72924;SDS011;61070;50.794;7.054;2023-04-07T04:43:10;58.67;;;29.67;;
72924;SDS011;61070;50.794;7.054;2023-04-07T04:45:35;68.97;;;33.65;;
72924;SDS011;61070;50.794;7.054;2023-04-07T04:48:00;66.25;;;30.15;;
72924;SDS011;61070;50.794;7.054;2023-04-07T04:50:26;59.58;;;28.90;;
72924;SDS011;61070;50.794;7.054;2023-04-07T04:52:51;64.28;;;31.52;;
72924;SDS011;61070;50.794;7.054;2023-04-07T04:55:16;64.80;;;31.73;;
72924;SDS011;61070;50.794;7.054;2023-04-07T04:57:41;66.50;;;31.77;;
72924;SDS011;61070;50.794;7.054;2023-04-07T05:00:07;60.92;;;29.80;;
72924;SDS011;61070;50.794;7.054;2023-04-07T05:02:33;58.63;;;28.95;;
72924;SDS011;61070;50.794;7.054;2023-04-07T05:04:59;66.40;;;32.03;;
72924;SDS011;61070;50.794;7.054;2023-04-07T05:07:24;64.43;;;33.08;;
72924;SDS011;61070;50.794;7.054;2023-04-07T05:09:50;61.38;;;29.80;;
72924;SDS011;61070;50.794;7.054;2023-04-07T05:12:15;63.28;;;31.38;;
72924;SDS011;61070;50.794;7.054;2023-04-07T05:14:40;60.50;;;28.95;;
72924;SDS011;61070;50.794;7.054;2023-04-07T05:17:06;64.43;;;29.27;;
72924;SDS011;61070;50.794;7.054;2023-04-07T05:19:31;68.60;;;29.98;;
72924;SDS011;61070;50.794;7.054;2023-04-07T05:21:56;61.45;;;30.98;;
72924;SDS011;61070;50.794;7.054;2023-04-07T05:24:22;71.55;;;34.17;;
72924;SDS011;61070;50.794;7.054;2023-04-07T05:26:50;72.07;;;32.30;;
72924;SDS011;61070;50.794;7.054;2023-04-07T05:29:15;64.68;;;32.13;;
72924;SDS011;61070;50.794;7.054;2023-04-07T05:31:41;68.70;;;32.95;;
72924;SDS011;61070;50.794;7.054;2023-04-07T05:34:06;67.47;;;31.92;;
72924;SDS011;61070;50.794;7.054;2023-04-07T05:36:32;64.68;;;30.33;;
72924;SDS011;61070;50.794;7.054;2023-04-07T05:38:57;66.10;;;31.33;;
72924;SDS011;61070;50.794;7.054;2023-04-07T05:41:23;74.00;;;33.50;;
72924;SDS011;61070;50.794;7.054;2023-04-07T05:43:48;66.68;;;32.65;;
72924;SDS011;61070;50.794;7.054;2023-04-07T05:46:13;73.90;;;32.50;;
72924;SDS011;61070;50.794;7.054;2023-04-07T05:48:38;72.20;;;33.78;;
72924;SDS011;61070;50.794;7.054;2023-04-07T05:51:04;68.32;;;32.97;;
72924;SDS011;61070;50.794;7.054;2023-04-07T05:53:30;68.32;;;31.92;;
72924;SDS011;61070;50.794;7.054;2023-04-07T05:55:55;70.95;;;32.92;;
72924;SDS011;61070;50.794;7.054;2023-04-07T05:58:20;77.85;;;33.38;;
72924;SDS011;61070;50.794;7.054;2023-04-07T06:00:46;76.93;;;31.98;;
72924;SDS011;61070;50.794;7.054;2023-04-07T06:03:11;67.45;;;32.60;;
72924;SDS011;61070;50.794;7.054;2023-04-07T06:05:36;68.18;;;32.00;;
72924;SDS011;61070;50.794;7.054;2023-04-07T06:08:02;63.10;;;31.77;;
72924;SDS011;61070;50.794;7.054;2023-04-07T06:10:27;60.00;;;31.38;;
72924;SDS011;61070;50.794;7.054;2023-04-07T06:12:52;70.53;;;30.05;;
72924;SDS011;61070;50.794;7.054;2023-04-07T06:15:17;67.32;;;31.48;;
72924;SDS011;61070;50.794;7.054;2023-04-07T06:17:43;64.18;;;28.50;;
72924;SDS011;61070;50.794;7.054;2023-04-07T06:20:09;63.00;;;29.13;;
72924;SDS011;61070;50.794;7.054;2023-04-07T06:22:35;55.95;;;27.10;;
72924;SDS011;61070;50.794;7.054;2023-04-07T06:25:01;56.85;;;26.95;;
72924;SDS011;61070;50.794;7.054;2023-04-07T06:27:26;53.13;;;26.48;;
72924;SDS011;61070;50.794;7.054;2023-04-07T06:29:51;57.00;;;26.52;;
72924;SDS011;61070;50.794;7.054;2023-04-07T06:32:17;64.45;;;29.33;;
72924;SDS011;61070;50.794;7.054;2023-04-07T06:34:54;55.28;;;27.35;;
72924;SDS011;61070;50.794;7.054;2023-04-07T06:37:25;63.33;;;28.58;;
72924;SDS011;61070;50.794;7.054;2023-04-07T06:39:51;58.65;;;27.80;;
72924;SDS011;61070;50.794;7.054;2023-04-07T06:42:16;54.53;;;27.60;;
72924;SDS011;61070;50.794;7.054;2023-04-07T06:44:42;48.42;;;25.50;;
72924;SDS011;61070;50.794;7.054;2023-04-07T06:47:07;56.38;;;26.10;;
72924;SDS011;61070;50.794;7.054;2023-04-07T06:49:33;52.88;;;24.52;;
72924;SDS011;61070;50.794;7.054;2023-04-07T06:51:58;48.38;;;24.63;;
72924;SDS011;61070;50.794;7.054;2023-04-07T06:54:24;53.05;;;25.75;;
72924;SDS011;61070;50.794;7.054;2023-04-07T06:56:49;50.72;;;22.75;;
72924;SDS011;61070;50.794;7.054;2023-04-07T06:59:15;45.22;;;21.80;;
72924;SDS011;61070;50.794;7.054;2023-04-07T07:01:40;58.00;;;22.73;;
72924;SDS011;61070;50.794;7.054;2023-04-07T07:04:06;45.75;;;21.95;;
72924;SDS011;61070;50.794;7.054;2023-04-07T07:06:31;44.15;;;19.25;;
72924;SDS011;61070;50.794;7.054;2023-04-07T07:08:56;45.35;;;20.00;;
72924;SDS011;61070;50.794;7.054;2023-04-07T07:11:22;41.80;;;19.63;;
72924;SDS011;61070;50.794;7.054;2023-04-07T07:13:48;40.60;;;18.58;;
72924;SDS011;61070;50.794;7.054;2023-04-07T07:16:13;39.72;;;18.85;;
72924;SDS011;61070;50.794;7.054;2023-04-07T07:18:38;40.83;;;19.23;;
72924;SDS011;61070;50.794;7.054;2023-04-07T07:21:03;48.75;;;18.33;;
72924;SDS011;61070;50.794;7.054;2023-04-07T07:23:29;40.15;;;18.80;;
72924;SDS011;61070;50.794;7.054;2023-04-07T07:25:55;39.47;;;16.92;;
72924;SDS011;61070;50.794;7.054;2023-04-07T07:28:20;44.78;;;19.88;;
72924;SDS011;61070;50.794;7.054;2023-04-07T07:30:46;45.10;;;18.08;;
72924;SDS011;61070;50.794;7.054;2023-04-07T07:33:12;35.15;;;16.17;;
72924;SDS011;61070;50.794;7.054;2023-04-07T07:35:37;29.90;;;14.00;;
72924;SDS011;61070;50.794;7.054;2023-04-07T07:38:04;29.80;;;13.70;;
72924;SDS011;61070;50.794;7.054;2023-04-07T07:40:29;28.20;;;15.25;;
72924;SDS011;61070;50.794;7.054;2023-04-07T07:42:55;30.90;;;13.50;;
72924;SDS011;61070;50.794;7.054;2023-04-07T07:45:20;29.35;;;14.02;;
72924;SDS011;61070;50.794;7.054;2023-04-07T07:47:46;28.50;;;13.95;;
72924;SDS011;61070;50.794;7.054;2023-04-07T07:50:11;30.85;;;13.18;;
72924;SDS011;61070;50.794;7.054;2023-04-07T07:52:36;27.00;;;12.98;;
72924;SDS011;61070;50.794;7.054;2023-04-07T07:55:01;30.92;;;13.85;;
72924;SDS011;61070;50.794;7.054;2023-04-07T07:57:27;27.50;;;12.95;;
72924;SDS011;61070;50.794;7.054;2023-04-07T07:59:52;27.42;;;13.18;;
72924;SDS011;61070;50.794;7.054;2023-04-07T08:02:18;25.98;;;11.68;;
72924;SDS011;61070;50.794;7.054;2023-04-07T08:04:43;30.75;;;13.32;;
72924;SDS011;61070;50.794;7.054;2023-04-07T08:07:08;29.13;;;13.15;;
72924;SDS011;61070;50.794;7.054;2023-04-07T08:09:35;23.90;;;11.45;;
72924;SDS011;61070;50.794;7.054;2023-04-07T08:12:01;18.38;;;10.48;;
72924;SDS011;61070;50.794;7.054;2023-04-07T08:14:27;18.05;;;9.90;;
72924;SDS011;61070;50.794;7.054;2023-04-07T08:16:56;18.80;;;9.88;;
72924;SDS011;61070;50.794;7.054;2023-04-07T08:19:21;18.70;;;8.93;;
72924;SDS011;61070;50.794;7.054;2023-04-07T08:21:47;21.63;;;10.40;;
72924;SDS011;61070;50.794;7.054;2023-04-07T08:24:13;14.63;;;8.10;;
72924;SDS011;61070;50.794;7.054;2023-04-07T08:26:38;16.83;;;7.65;;
72924;SDS011;61070;50.794;7.054;2023-04-07T08:29:03;13.48;;;7.65;;
72924;SDS011;61070;50.794;7.054;2023-04-07T08:31:29;12.48;;;7.50;;
72924;SDS011;61070;50.794;7.054;2023-04-07T08:33:54;16.60;;;7.45;;
72924;SDS011;61070;50.794;7.054;2023-04-07T08:36:24;16.83;;;7.68;;
72924;SDS011;61070;50.794;7.054;2023-04-07T08:38:51;12.48;;;7.53;;
72924;SDS011;61070;50.794;7.054;2023-04-07T08:41:19;13.75;;;8.20;;
72924;SDS011;61070;50.794;7.054;2023-04-07T08:43:53;15.38;;;8.23;;
72924;SDS011;61070;50.794;7.054;2023-04-07T08:46:20;15.50;;;7.65;;
72924;SDS011;61070;50.794;7.054;2023-04-07T08:48:47;17.65;;;8.00;;
72924;SDS011;61070;50.794;7.054;2023-04-07T08:51:15;17.25;;;8.50;;
72924;SDS011;61070;50.794;7.054;2023-04-07T08:53:53;16.52;;;8.23;;
72924;SDS011;61070;50.794;7.054;2023-04-07T08:56:24;13.98;;;7.93;;
72924;SDS011;61070;50.794;7.054;2023-04-07T08:58:50;18.00;;;8.57;;
72924;SDS011;61070;50.794;7.054;2023-04-07T09:01:16;15.73;;;8.30;;
72924;SDS011;61070;50.794;7.054;2023-04-07T09:03:43;15.85;;;7.40;;
72924;SDS011;61070;50.794;7.054;2023-04-07T09:06:09;14.00;;;7.35;;
72924;SDS011;61070;50.794;7.054;2023-04-07T09:08:35;16.30;;;8.25;;
72924;SDS011;61070;50.794;7.054;2023-04-07T09:11:01;14.35;;;7.28;;
72924;SDS011;61070;50.794;7.054;2023-04-07T09:13:26;17.13;;;7.88;;
72924;SDS011;61070;50.794;7.054;2023-04-07T09:15:52;20.20;;;8.07;;
72924;SDS011;61070;50.794;7.054;2023-04-07T09:18:17;23.55;;;8.48;;
72924;SDS011;61070;50.794;7.054;2023-04-07T09:21:03;20.05;;;9.73;;
72924;SDS011;61070;50.794;7.054;2023-04-07T09:23:32;15.57;;;8.57;;
72924;SDS011;61070;50.794;7.054;2023-04-07T09:28:46;17.48;;;8.15;;
72924;SDS011;61070;50.794;7.054;2023-04-07T09:31:13;19.08;;;9.18;;
72924;SDS011;61070;50.794;7.054;2023-04-07T09:33:38;18.63;;;8.90;;
72924;SDS011;61070;50.794;7.054;2023-04-07T09:36:04;22.48;;;9.25;;
72924;SDS011;61070;50.794;7.054;2023-04-07T09:38:32;17.25;;;8.38;;
72924;SDS011;61070;50.794;7.054;2023-04-07T09:41:19;23.95;;;10.02;;
72924;SDS011;61070;50.794;7.054;2023-04-07T09:43:45;17.98;;;9.00;;
72924;SDS011;61070;50.794;7.054;2023-04-07T09:46:14;23.52;;;9.20;;
72924;SDS011;61070;50.794;7.054;2023-04-07T09:51:11;19.05;;;8.23;;
72924;SDS011;61070;50.794;7.054;2023-04-07T09:53:42;21.23;;;9.57;;
72924;SDS011;61070;50.794;7.054;2023-04-07T09:56:20;17.90;;;8.93;;
72924;SDS011;61070;50.794;7.054;2023-04-07T09:58:47;28.13;;;11.20;;
72924;SDS011;61070;50.794;7.054;2023-04-07T10:01:15;23.38;;;11.00;;
72924;SDS011;61070;50.794;7.054;2023-04-07T10:03:41;19.45;;;10.80;;
72924;SDS011;61070;50.794;7.054;2023-04-07T10:06:07;23.77;;;11.98;;
72924;SDS011;61070;50.794;7.054;2023-04-07T10:08:34;25.17;;;10.10;;
72924;SDS011;61070;50.794;7.054;2023-04-07T10:11:01;26.15;;;9.82;;
72924;SDS011;61070;50.794;7.054;2023-04-07T10:13:28;18.08;;;9.80;;
72924;SDS011;61070;50.794;7.054;2023-04-07T10:15:55;21.67;;;10.65;;
72924;SDS011;61070;50.794;7.054;2023-04-07T10:18:21;18.17;;;9.23;;
72924;SDS011;61070;50.794;7.054;2023-04-07T10:20:48;26.45;;;12.32;;
72924;SDS011;61070;50.794;7.054;2023-04-07T10:23:17;28.50;;;13.02;;
72924;SDS011;61070;50.794;7.054;2023-04-07T10:25:47;27.95;;;11.80;;
72924;SDS011;61070;50.794;7.054;2023-04-07T10:28:15;22.77;;;9.32;;
72924;SDS011;61070;50.794;7.054;2023-04-07T10:30:41;17.38;;;9.48;;
72924;SDS011;61070;50.794;7.054;2023-04-07T10:33:09;22.02;;;9.95;;
72924;SDS011;61070;50.794;7.054;2023-04-07T10:38:27;19.52;;;10.75;;
72924;SDS011;61070;50.794;7.054;2023-04-07T10:40:53;24.25;;;11.30;;
72924;SDS011;61070;50.794;7.054;2023-04-07T10:43:35;25.27;;;11.15;;
72924;SDS011;61070;50.794;7.054;2023-04-07T10:46:02;22.75;;;11.45;;
72924;SDS011;61070;50.794;7.054;2023-04-07T10:48:28;20.13;;;10.23;;
72924;SDS011;61070;50.794;7.054;2023-04-07T10:53:31;18.35;;;10.38;;
72924;SDS011;61070;50.794;7.054;2023-04-07T10:56:00;21.50;;;11.68;;
72924;SDS011;61070;50.794;7.054;2023-04-07T10:58:30;24.60;;;13.18;;
72924;SDS011;61070;50.794;7.054;2023-04-07T11:03:20;27.40;;;11.63;;
72924;SDS011;61070;50.794;7.054;2023-04-07T11:05:46;24.42;;;11.27;;
72924;SDS011;61070;50.794;7.054;2023-04-07T11:08:11;20.25;;;11.68;;
72924;SDS011;61070;50.794;7.054;2023-04-07T11:10:37;25.33;;;11.82;;
72924;SDS011;61070;50.794;7.054;2023-04-07T11:13:03;21.90;;;11.52;;
72924;SDS011;61070;50.794;7.054;2023-04-07T11:15:31;24.35;;;11.32;;
72924;SDS011;61070;50.794;7.054;2023-04-07T11:20:41;21.25;;;11.48;;
72924;SDS011;61070;50.794;7.054;2023-04-07T11:23:07;20.00;;;11.43;;
72924;SDS011;61070;50.794;7.054;2023-04-07T11:25:32;24.45;;;11.63;;
72924;SDS011;61070;50.794;7.054;2023-04-07T11:27:59;31.50;;;14.32;;
72924;SDS011;61070;50.794;7.054;2023-04-07T11:30:27;24.33;;;12.68;;
72924;SDS011;61070;50.794;7.054;2023-04-07T11:32:52;29.83;;;14.02;;
72924;SDS011;61070;50.794;7.054;2023-04-07T11:35:17;24.08;;;13.32;;
72924;SDS011;61070;50.794;7.054;2023-04-07T11:37:43;25.52;;;15.35;;
72924;SDS011;61070;50.794;7.054;2023-04-07T11:40:09;27.52;;;15.05;;
72924;SDS011;61070;50.794;7.054;2023-04-07T11:42:38;24.23;;;13.27;;
72924;SDS011;61070;50.794;7.054;2023-04-07T11:45:04;29.15;;;13.98;;
72924;SDS011;61070;50.794;7.054;2023-04-07T11:47:39;31.80;;;15.15;;
72924;SDS011;61070;50.794;7.054;2023-04-07T11:50:05;34.72;;;16.70;;
72924;SDS011;61070;50.794;7.054;2023-04-07T11:55:15;35.00;;;18.23;;
72924;SDS011;61070;50.794;7.054;2023-04-07T11:57:42;39.17;;;16.95;;
72924;SDS011;61070;50.794;7.054;2023-04-07T12:00:07;34.92;;;17.70;;
72924;SDS011;61070;50.794;7.054;2023-04-07T12:02:34;34.10;;;17.67;;
72924;SDS011;61070;50.794;7.054;2023-04-07T12:05:00;36.72;;;16.35;;
72924;SDS011;61070;50.794;7.054;2023-04-07T12:07:26;36.92;;;16.85;;
72924;SDS011;61070;50.794;7.054;2023-04-07T12:09:52;33.72;;;15.13;;
72924;SDS011;61070;50.794;7.054;2023-04-07T12:12:25;36.08;;;15.95;;
72924;SDS011;61070;50.794;7.054;2023-04-07T12:14:53;30.65;;;13.68;;
72924;SDS011;61070;50.794;7.054;2023-04-07T12:17:22;32.05;;;15.50;;
72924;SDS011;61070;50.794;7.054;2023-04-07T12:19:49;32.70;;;15.82;;
72924;SDS011;61070;50.794;7.054;2023-04-07T12:22:14;33.40;;;16.67;;
72924;SDS011;61070;50.794;7.054;2023-04-07T12:24:40;31.65;;;16.10;;
72924;SDS011;61070;50.794;7.054;2023-04-07T12:27:05;29.73;;;15.63;;
72924;SDS011;61070;50.794;7.054;2023-04-07T12:29:31;33.25;;;16.02;;
72924;SDS011;61070;50.794;7.054;2023-04-07T12:31:58;28.52;;;15.77;;
72924;SDS011;61070;50.794;7.054;2023-04-07T12:34:24;34.22;;;16.10;;
72924;SDS011;61070;50.794;7.054;2023-04-07T12:36:51;31.98;;;14.40;;
72924;SDS011;61070;50.794;7.054;2023-04-07T12:39:16;30.60;;;14.77;;
72924;SDS011;61070;50.794;7.054;2023-04-07T12:41:41;26.75;;;14.73;;
72924;SDS011;61070;50.794;7.054;2023-04-07T12:44:09;36.47;;;15.20;;
72924;SDS011;61070;50.794;7.054;2023-04-07T12:46:34;36.25;;;16.17;;
72924;SDS011;61070;50.794;7.054;2023-04-07T12:49:02;32.22;;;15.77;;
72924;SDS011;61070;50.794;7.054;2023-04-07T12:51:27;35.33;;;15.70;;
72924;SDS011;61070;50.794;7.054;2023-04-07T12:53:53;28.08;;;15.75;;
72924;SDS011;61070;50.794;7.054;2023-04-07T12:56:18;28.45;;;16.38;;
72924;SDS011;61070;50.794;7.054;2023-04-07T12:58:46;30.13;;;15.85;;
72924;SDS011;61070;50.794;7.054;2023-04-07T13:01:11;31.95;;;16.13;;
72924;SDS011;61070;50.794;7.054;2023-04-07T13:03:37;32.88;;;16.25;;
72924;SDS011;61070;50.794;7.054;2023-04-07T13:06:02;36.95;;;16.48;;
72924;SDS011;61070;50.794;7.054;2023-04-07T13:08:28;34.47;;;17.38;;
72924;SDS011;61070;50.794;7.054;2023-04-07T13:10:54;31.20;;;17.70;;
72924;SDS011;61070;50.794;7.054;2023-04-07T13:13:20;42.42;;;17.08;;
72924;SDS011;61070;50.794;7.054;2023-04-07T13:15:46;33.45;;;17.45;;
72924;SDS011;61070;50.794;7.054;2023-04-07T13:18:11;37.42;;;17.13;;
72924;SDS011;61070;50.794;7.054;2023-04-07T13:20:37;32.13;;;15.48;;
72924;SDS011;61070;50.794;7.054;2023-04-07T13:23:03;32.00;;;15.82;;
72924;SDS011;61070;50.794;7.054;2023-04-07T13:25:29;39.05;;;16.77;;
72924;SDS011;61070;50.794;7.054;2023-04-07T13:27:55;31.25;;;14.55;;
72924;SDS011;61070;50.794;7.054;2023-04-07T13:30:20;30.50;;;15.30;;
72924;SDS011;61070;50.794;7.054;2023-04-07T13:32:46;31.58;;;16.73;;
72924;SDS011;61070;50.794;7.054;2023-04-07T13:35:14;39.05;;;16.02;;
72924;SDS011;61070;50.794;7.054;2023-04-07T13:37:40;31.63;;;16.80;;
72924;SDS011;61070;50.794;7.054;2023-04-07T13:40:06;33.75;;;15.82;;
72924;SDS011;61070;50.794;7.054;2023-04-07T13:42:32;36.65;;;17.83;;
72924;SDS011;61070;50.794;7.054;2023-04-07T13:44:57;35.28;;;16.88;;
72924;SDS011;61070;50.794;7.054;2023-04-07T13:47:22;31.70;;;16.42;;
72924;SDS011;61070;50.794;7.054;2023-04-07T13:49:48;32.33;;;16.80;;
72924;SDS011;61070;50.794;7.054;2023-04-07T13:52:16;30.63;;;16.27;;
72924;SDS011;61070;50.794;7.054;2023-04-07T13:54:41;33.33;;;17.35;;
72924;SDS011;61070;50.794;7.054;2023-04-07T13:57:07;32.13;;;17.17;;
72924;SDS011;61070;50.794;7.054;2023-04-07T13:59:33;41.88;;;18.20;;
72924;SDS011;61070;50.794;7.054;2023-04-07T14:01:58;29.65;;;15.10;;
72924;SDS011;61070;50.794;7.054;2023-04-07T14:04:24;31.73;;;17.40;;
72924;SDS011;61070;50.794;7.054;2023-04-07T14:06:49;28.90;;;15.23;;
72924;SDS011;61070;50.794;7.054;2023-04-07T14:09:14;28.40;;;16.35;;
72924;SDS011;61070;50.794;7.054;2023-04-07T14:11:40;30.17;;;16.05;;
72924;SDS011;61070;50.794;7.054;2023-04-07T14:14:05;31.60;;;17.27;;
72924;SDS011;61070;50.794;7.054;2023-04-07T14:16:31;33.08;;;16.38;;
72924;SDS011;61070;50.794;7.054;2023-04-07T14:18:56;22.00;;;13.85;;
72924;SDS011;61070;50.794;7.054;2023-04-07T14:21:22;23.05;;;12.95;;
72924;SDS011;61070;50.794;7.054;2023-04-07T14:23:47;21.15;;;12.18;;
72924;SDS011;61070;50.794;7.054;2023-04-07T14:26:12;21.13;;;10.95;;
72924;SDS011;61070;50.794;7.054;2023-04-07T14:28:38;20.48;;;11.23;;
72924;SDS011;61070;50.794;7.054;2023-04-07T14:31:03;21.90;;;11.85;;
72924;SDS011;61070;50.794;7.054;2023-04-07T14:33:29;24.60;;;12.20;;
72924;SDS011;61070;50.794;7.054;2023-04-07T14:35:54;22.45;;;11.73;;
72924;SDS011;61070;50.794;7.054;2023-04-07T14:38:20;22.75;;;11.73;;
72924;SDS011;61070;50.794;7.054;2023-04-07T14:40:50;22.23;;;12.27;;
72924;SDS011;61070;50.794;7.054;2023-04-07T14:43:16;28.40;;;11.75;;
72924;SDS011;61070;50.794;7.054;2023-04-07T14:45:42;25.70;;;12.88;;